sensor_id;sensor_type;location;lat;lon;timestamp;P1;durP1;ratioP1;P2;durP2;ratioP2
13171;SDS011;6651;53.200;10.432;2023-07-13T00:00:17;4.25;;;2.97;;
13171;SDS011;6651;53.200;10.432;2023-07-13T00:02:43;3.70;;;2.70;;
13171;SDS011;6651;53.200;10.432;2023-07-13T00:05:09;3.10;;;2.70;;
13171;SDS011;6651;53.200;10.432;2023-07-13T00:07:36;2.80;;;2.50;;
13171;SDS011;6651;53.200;10.432;2023-07-13T00:10:03;3.42;;;2.70;;
13171;SDS011;6651;53.200;10.432;2023-07-13T00:12:30;5.55;;;2.80;;
13171;SDS011;6651;53.200;10.432;2023-07-13T00:14:57;3.58;;;2.85;;
13171;SDS011;6651;53.200;10.432;2023-07-13T00:17:23;4.57;;;2.80;;
13171;SDS011;6651;53.200;10.432;2023-07-13T00:19:50;3.85;;;2.85;;
13171;SDS011;6651;53.200;10.432;2023-07-13T00:22:16;3.58;;;2.70;;
13171;SDS011;6651;53.200;10.432;2023-07-13T00:24:43;5.78;;;3.20;;
13171;SDS011;6651;53.200;10.432;2023-07-13T00:27:09;6.43;;;3.20;;
13171;SDS011;6651;53.200;10.432;2023-07-13T00:29:35;4.35;;;3.08;;
13171;SDS011;6651;53.200;10.432;2023-07-13T00:32:05;3.97;;;2.97;;
13171;SDS011;6651;53.200;10.432;2023-07-13T00:34:32;4.30;;;3.10;;
13171;SDS011;6651;53.200;10.432;2023-07-13T00:36:58;3.83;;;2.60;;
13171;SDS011;6651;53.200;10.432;2023-07-13T00:39:24;5.63;;;2.88;;
13171;SDS011;6651;53.200;10.432;2023-07-13T00:41:50;4.40;;;3.00;;
13171;SDS011;6651;53.200;10.432;2023-07-13T00:44:18;3.53;;;2.88;;
13171;SDS011;6651;53.200;10.432;2023-07-13T00:46:44;4.55;;;2.85;;
13171;SDS011;6651;53.200;10.432;2023-07-13T00:49:12;3.03;;;2.67;;
13171;SDS011;6651;53.200;10.432;2023-07-13T00:51:44;4.57;;;2.40;;
13171;SDS011;6651;53.200;10.432;2023-07-13T00:54:11;2.97;;;2.67;;
13171;SDS011;6651;53.200;10.432;2023-07-13T00:56:39;4.65;;;2.63;;
13171;SDS011;6651;53.200;10.432;2023-07-13T00:59:06;4.40;;;2.67;;
13171;SDS011;6651;53.200;10.432;2023-07-13T01:01:32;3.35;;;2.50;;
13171;SDS011;6651;53.200;10.432;2023-07-13T01:03:58;3.03;;;2.42;;
13171;SDS011;6651;53.200;10.432;2023-07-13T01:06:24;4.38;;;2.80;;
13171;SDS011;6651;53.200;10.432;2023-07-13T01:08:50;5.95;;;2.70;;
13171;SDS011;6651;53.200;10.432;2023-07-13T01:11:20;3.00;;;2.42;;
13171;SDS011;6651;53.200;10.432;2023-07-13T01:13:47;3.65;;;2.38;;
13171;SDS011;6651;53.200;10.432;2023-07-13T01:16:18;3.53;;;2.50;;
13171;SDS011;6651;53.200;10.432;2023-07-13T01:18:45;2.95;;;2.20;;
13171;SDS011;6651;53.200;10.432;2023-07-13T01:21:11;3.90;;;2.60;;
13171;SDS011;6651;53.200;10.432;2023-07-13T01:23:37;4.68;;;2.50;;
13171;SDS011;6651;53.200;10.432;2023-07-13T01:26:03;4.28;;;2.78;;
13171;SDS011;6651;53.200;10.432;2023-07-13T01:28:29;3.15;;;2.65;;
13171;SDS011;6651;53.200;10.432;2023-07-13T01:30:56;4.82;;;2.75;;
13171;SDS011;6651;53.200;10.432;2023-07-13T01:33:22;3.95;;;2.80;;
13171;SDS011;6651;53.200;10.432;2023-07-13T01:35:48;5.22;;;3.08;;
13171;SDS011;6651;53.200;10.432;2023-07-13T01:38:15;5.05;;;3.10;;
13171;SDS011;6651;53.200;10.432;2023-07-13T01:40:42;3.17;;;2.70;;
13171;SDS011;6651;53.200;10.432;2023-07-13T01:43:09;4.30;;;3.10;;
13171;SDS011;6651;53.200;10.432;2023-07-13T01:45:35;3.83;;;2.95;;
13171;SDS011;6651;53.200;10.432;2023-07-13T01:48:01;4.03;;;2.80;;
13171;SDS011;6651;53.200;10.432;2023-07-13T01:50:27;3.50;;;2.97;;
13171;SDS011;6651;53.200;10.432;2023-07-13T01:52:53;4.65;;;2.75;;
13171;SDS011;6651;53.200;10.432;2023-07-13T01:55:20;4.82;;;2.85;;
13171;SDS011;6651;53.200;10.432;2023-07-13T01:57:46;5.03;;;2.80;;
13171;SDS011;6651;53.200;10.432;2023-07-13T02:00:13;3.30;;;2.60;;
13171;SDS011;6651;53.200;10.432;2023-07-13T02:02:39;4.47;;;2.60;;
13171;SDS011;6651;53.200;10.432;2023-07-13T02:05:05;3.47;;;2.72;;
13171;SDS011;6651;53.200;10.432;2023-07-13T02:07:31;4.15;;;2.90;;
13171;SDS011;6651;53.200;10.432;2023-07-13T02:09:57;3.63;;;2.60;;
13171;SDS011;6651;53.200;10.432;2023-07-13T02:12:23;3.25;;;2.80;;
13171;SDS011;6651;53.200;10.432;2023-07-13T02:14:49;3.78;;;2.47;;
13171;SDS011;6651;53.200;10.432;2023-07-13T02:17:15;3.88;;;2.72;;
13171;SDS011;6651;53.200;10.432;2023-07-13T02:19:41;2.88;;;2.67;;
13171;SDS011;6651;53.200;10.432;2023-07-13T02:22:07;3.90;;;3.00;;
13171;SDS011;6651;53.200;10.432;2023-07-13T02:24:33;4.43;;;2.92;;
13171;SDS011;6651;53.200;10.432;2023-07-13T02:26:59;4.13;;;3.03;;
13171;SDS011;6651;53.200;10.432;2023-07-13T02:29:25;5.03;;;3.03;;
13171;SDS011;6651;53.200;10.432;2023-07-13T02:31:51;5.82;;;3.00;;
13171;SDS011;6651;53.200;10.432;2023-07-13T02:34:17;3.70;;;2.80;;
13171;SDS011;6651;53.200;10.432;2023-07-13T02:36:46;4.57;;;3.45;;
13171;SDS011;6651;53.200;10.432;2023-07-13T02:39:13;3.40;;;2.95;;
13171;SDS011;6651;53.200;10.432;2023-07-13T02:41:39;5.55;;;2.80;;
13171;SDS011;6651;53.200;10.432;2023-07-13T02:44:05;4.57;;;2.97;;
13171;SDS011;6651;53.200;10.432;2023-07-13T02:46:33;5.57;;;2.72;;
13171;SDS011;6651;53.200;10.432;2023-07-13T02:48:59;3.15;;;2.50;;
13171;SDS011;6651;53.200;10.432;2023-07-13T02:51:26;5.32;;;3.00;;
13171;SDS011;6651;53.200;10.432;2023-07-13T02:53:52;4.60;;;2.88;;
13171;SDS011;6651;53.200;10.432;2023-07-13T02:56:22;3.72;;;2.80;;
13171;SDS011;6651;53.200;10.432;2023-07-13T02:58:48;3.35;;;2.75;;
13171;SDS011;6651;53.200;10.432;2023-07-13T03:01:14;3.45;;;3.10;;
13171;SDS011;6651;53.200;10.432;2023-07-13T03:03:43;4.18;;;2.92;;
13171;SDS011;6651;53.200;10.432;2023-07-13T03:06:09;4.68;;;2.80;;
13171;SDS011;6651;53.200;10.432;2023-07-13T03:08:35;3.20;;;2.80;;
13171;SDS011;6651;53.200;10.432;2023-07-13T03:11:02;4.65;;;2.80;;
13171;SDS011;6651;53.200;10.432;2023-07-13T03:13:30;3.03;;;2.72;;
13171;SDS011;6651;53.200;10.432;2023-07-13T03:15:56;5.15;;;3.08;;
13171;SDS011;6651;53.200;10.432;2023-07-13T03:18:22;3.33;;;3.03;;
13171;SDS011;6651;53.200;10.432;2023-07-13T03:20:51;4.40;;;3.10;;
13171;SDS011;6651;53.200;10.432;2023-07-13T03:23:17;4.55;;;3.20;;
13171;SDS011;6651;53.200;10.432;2023-07-13T03:25:44;4.78;;;3.22;;
13171;SDS011;6651;53.200;10.432;2023-07-13T03:28:10;3.50;;;3.20;;
13171;SDS011;6651;53.200;10.432;2023-07-13T03:30:36;3.58;;;3.28;;
13171;SDS011;6651;53.200;10.432;2023-07-13T03:33:02;3.20;;;2.90;;
13171;SDS011;6651;53.200;10.432;2023-07-13T03:35:28;7.00;;;3.30;;
13171;SDS011;6651;53.200;10.432;2023-07-13T03:37:54;4.95;;;3.17;;
13171;SDS011;6651;53.200;10.432;2023-07-13T03:40:20;3.53;;;2.83;;
13171;SDS011;6651;53.200;10.432;2023-07-13T03:42:46;3.17;;;2.83;;
13171;SDS011;6651;53.200;10.432;2023-07-13T03:45:12;4.72;;;2.83;;
13171;SDS011;6651;53.200;10.432;2023-07-13T03:47:38;3.53;;;2.97;;
13171;SDS011;6651;53.200;10.432;2023-07-13T03:50:05;3.00;;;2.70;;
13171;SDS011;6651;53.200;10.432;2023-07-13T03:52:31;4.20;;;2.88;;
13171;SDS011;6651;53.200;10.432;2023-07-13T03:54:57;2.85;;;2.65;;
13171;SDS011;6651;53.200;10.432;2023-07-13T03:57:23;5.55;;;3.00;;
13171;SDS011;6651;53.200;10.432;2023-07-13T03:59:49;4.13;;;3.00;;
13171;SDS011;6651;53.200;10.432;2023-07-13T04:02:15;4.10;;;3.20;;
13171;SDS011;6651;53.200;10.432;2023-07-13T04:04:42;3.97;;;2.90;;
13171;SDS011;6651;53.200;10.432;2023-07-13T04:07:08;5.32;;;3.30;;
13171;SDS011;6651;53.200;10.432;2023-07-13T04:09:35;3.90;;;3.50;;
13171;SDS011;6651;53.200;10.432;2023-07-13T04:12:01;5.70;;;3.60;;
13171;SDS011;6651;53.200;10.432;2023-07-13T04:14:28;3.88;;;3.30;;
13171;SDS011;6651;53.200;10.432;2023-07-13T04:16:54;3.80;;;3.40;;
13171;SDS011;6651;53.200;10.432;2023-07-13T04:19:20;5.22;;;3.92;;
13171;SDS011;6651;53.200;10.432;2023-07-13T04:21:46;5.45;;;3.95;;
13171;SDS011;6651;53.200;10.432;2023-07-13T04:24:12;4.32;;;3.92;;
13171;SDS011;6651;53.200;10.432;2023-07-13T04:26:39;5.97;;;3.75;;
13171;SDS011;6651;53.200;10.432;2023-07-13T04:29:05;8.73;;;4.40;;
13171;SDS011;6651;53.200;10.432;2023-07-13T04:31:31;5.53;;;4.53;;
13171;SDS011;6651;53.200;10.432;2023-07-13T04:33:58;4.82;;;4.28;;
13171;SDS011;6651;53.200;10.432;2023-07-13T04:36:24;7.13;;;4.38;;
13171;SDS011;6651;53.200;10.432;2023-07-13T04:38:52;8.75;;;4.70;;
13171;SDS011;6651;53.200;10.432;2023-07-13T04:41:19;7.65;;;4.93;;
13171;SDS011;6651;53.200;10.432;2023-07-13T04:43:45;6.65;;;4.60;;
13171;SDS011;6651;53.200;10.432;2023-07-13T04:46:12;6.72;;;5.13;;
13171;SDS011;6651;53.200;10.432;2023-07-13T04:48:38;7.47;;;4.70;;
13171;SDS011;6651;53.200;10.432;2023-07-13T04:51:04;6.93;;;5.07;;
13171;SDS011;6651;53.200;10.432;2023-07-13T04:53:32;7.30;;;4.53;;
13171;SDS011;6651;53.200;10.432;2023-07-13T04:55:59;7.07;;;4.95;;
13171;SDS011;6651;53.200;10.432;2023-07-13T04:58:25;8.82;;;4.97;;
13171;SDS011;6651;53.200;10.432;2023-07-13T05:00:52;6.32;;;4.82;;
13171;SDS011;6651;53.200;10.432;2023-07-13T05:03:18;7.82;;;4.70;;
13171;SDS011;6651;53.200;10.432;2023-07-13T05:05:54;7.68;;;4.63;;
13171;SDS011;6651;53.200;10.432;2023-07-13T05:08:20;6.28;;;4.55;;
13171;SDS011;6651;53.200;10.432;2023-07-13T05:10:46;7.53;;;4.45;;
13171;SDS011;6651;53.200;10.432;2023-07-13T05:13:12;8.02;;;4.60;;
13171;SDS011;6651;53.200;10.432;2023-07-13T05:15:38;7.22;;;4.43;;
13171;SDS011;6651;53.200;10.432;2023-07-13T05:18:04;8.50;;;4.53;;
13171;SDS011;6651;53.200;10.432;2023-07-13T05:20:30;6.75;;;3.90;;
13171;SDS011;6651;53.200;10.432;2023-07-13T05:22:56;7.47;;;4.57;;
13171;SDS011;6651;53.200;10.432;2023-07-13T05:25:22;8.88;;;4.72;;
13171;SDS011;6651;53.200;10.432;2023-07-13T05:27:48;11.57;;;4.72;;
13171;SDS011;6651;53.200;10.432;2023-07-13T05:30:14;8.50;;;4.65;;
13171;SDS011;6651;53.200;10.432;2023-07-13T05:32:40;8.98;;;4.20;;
13171;SDS011;6651;53.200;10.432;2023-07-13T05:35:06;7.53;;;4.43;;
13171;SDS011;6651;53.200;10.432;2023-07-13T05:37:33;8.00;;;4.25;;
13171;SDS011;6651;53.200;10.432;2023-07-13T05:39:59;7.05;;;3.97;;
13171;SDS011;6651;53.200;10.432;2023-07-13T05:42:25;8.40;;;4.10;;
13171;SDS011;6651;53.200;10.432;2023-07-13T05:44:51;8.32;;;4.03;;
13171;SDS011;6651;53.200;10.432;2023-07-13T05:47:17;7.60;;;3.80;;
13171;SDS011;6651;53.200;10.432;2023-07-13T05:49:43;7.47;;;4.20;;
13171;SDS011;6651;53.200;10.432;2023-07-13T05:52:09;9.70;;;3.60;;
13171;SDS011;6651;53.200;10.432;2023-07-13T05:54:35;8.13;;;3.55;;
13171;SDS011;6651;53.200;10.432;2023-07-13T05:57:01;9.60;;;4.15;;
13171;SDS011;6651;53.200;10.432;2023-07-13T05:59:27;10.85;;;3.78;;
13171;SDS011;6651;53.200;10.432;2023-07-13T06:01:53;10.15;;;3.58;;
13171;SDS011;6651;53.200;10.432;2023-07-13T06:04:19;8.32;;;3.70;;
13171;SDS011;6651;53.200;10.432;2023-07-13T06:06:45;11.80;;;3.90;;
13171;SDS011;6651;53.200;10.432;2023-07-13T06:09:11;9.00;;;3.60;;
13171;SDS011;6651;53.200;10.432;2023-07-13T06:11:37;9.95;;;3.72;;
13171;SDS011;6651;53.200;10.432;2023-07-13T06:14:03;9.60;;;3.92;;
13171;SDS011;6651;53.200;10.432;2023-07-13T06:16:29;11.75;;;4.07;;
13171;SDS011;6651;53.200;10.432;2023-07-13T06:18:55;11.07;;;3.58;;
13171;SDS011;6651;53.200;10.432;2023-07-13T06:21:22;11.82;;;3.40;;
13171;SDS011;6651;53.200;10.432;2023-07-13T06:23:48;12.73;;;3.85;;
13171;SDS011;6651;53.200;10.432;2023-07-13T06:26:15;9.60;;;3.67;;
13171;SDS011;6651;53.200;10.432;2023-07-13T06:28:41;11.98;;;3.95;;
13171;SDS011;6651;53.200;10.432;2023-07-13T06:31:07;12.05;;;3.70;;
13171;SDS011;6651;53.200;10.432;2023-07-13T06:33:34;9.30;;;3.35;;
13171;SDS011;6651;53.200;10.432;2023-07-13T06:36:01;8.10;;;3.80;;
13171;SDS011;6651;53.200;10.432;2023-07-13T06:38:27;10.98;;;3.50;;
13171;SDS011;6651;53.200;10.432;2023-07-13T06:40:53;9.82;;;3.90;;
13171;SDS011;6651;53.200;10.432;2023-07-13T06:43:19;12.13;;;3.25;;
13171;SDS011;6651;53.200;10.432;2023-07-13T06:45:46;8.43;;;3.50;;
13171;SDS011;6651;53.200;10.432;2023-07-13T06:48:17;10.40;;;4.07;;
13171;SDS011;6651;53.200;10.432;2023-07-13T06:50:43;9.55;;;3.58;;
13171;SDS011;6651;53.200;10.432;2023-07-13T06:53:10;10.25;;;3.78;;
13171;SDS011;6651;53.200;10.432;2023-07-13T06:55:36;10.75;;;3.50;;
13171;SDS011;6651;53.200;10.432;2023-07-13T06:58:02;9.80;;;3.33;;
13171;SDS011;6651;53.200;10.432;2023-07-13T07:00:28;11.85;;;3.65;;
13171;SDS011;6651;53.200;10.432;2023-07-13T07:02:54;11.65;;;3.72;;
13171;SDS011;6651;53.200;10.432;2023-07-13T07:05:20;12.73;;;3.83;;
13171;SDS011;6651;53.200;10.432;2023-07-13T07:07:50;10.73;;;3.60;;
13171;SDS011;6651;53.200;10.432;2023-07-13T07:10:17;10.73;;;3.30;;
13171;SDS011;6651;53.200;10.432;2023-07-13T07:12:43;10.50;;;3.60;;
13171;SDS011;6651;53.200;10.432;2023-07-13T07:15:09;9.52;;;3.38;;
13171;SDS011;6651;53.200;10.432;2023-07-13T07:17:35;10.93;;;3.55;;
13171;SDS011;6651;53.200;10.432;2023-07-13T07:20:02;9.38;;;3.38;;
13171;SDS011;6651;53.200;10.432;2023-07-13T07:22:28;10.38;;;3.00;;
13171;SDS011;6651;53.200;10.432;2023-07-13T07:24:55;7.75;;;3.40;;
13171;SDS011;6651;53.200;10.432;2023-07-13T07:27:21;9.15;;;3.33;;
13171;SDS011;6651;53.200;10.432;2023-07-13T07:29:47;11.15;;;3.28;;
13171;SDS011;6651;53.200;10.432;2023-07-13T07:32:13;6.30;;;2.75;;
13171;SDS011;6651;53.200;10.432;2023-07-13T07:34:39;9.13;;;3.25;;
13171;SDS011;6651;53.200;10.432;2023-07-13T07:37:05;9.02;;;2.90;;
13171;SDS011;6651;53.200;10.432;2023-07-13T07:39:32;13.70;;;3.40;;
13171;SDS011;6651;53.200;10.432;2023-07-13T07:41:58;10.25;;;3.47;;
13171;SDS011;6651;53.200;10.432;2023-07-13T07:44:24;10.32;;;3.65;;
13171;SDS011;6651;53.200;10.432;2023-07-13T07:46:52;10.18;;;3.22;;
13171;SDS011;6651;53.200;10.432;2023-07-13T07:49:18;10.90;;;3.30;;
13171;SDS011;6651;53.200;10.432;2023-07-13T07:51:44;8.65;;;3.15;;
13171;SDS011;6651;53.200;10.432;2023-07-13T07:54:10;10.18;;;3.55;;
13171;SDS011;6651;53.200;10.432;2023-07-13T07:56:36;8.82;;;2.75;;
13171;SDS011;6651;53.200;10.432;2023-07-13T07:59:02;9.15;;;3.10;;
13171;SDS011;6651;53.200;10.432;2023-07-13T08:01:28;9.73;;;2.80;;
13171;SDS011;6651;53.200;10.432;2023-07-13T08:03:54;9.57;;;2.97;;
13171;SDS011;6651;53.200;10.432;2023-07-13T08:06:20;10.13;;;3.42;;
13171;SDS011;6651;53.200;10.432;2023-07-13T08:08:47;10.45;;;3.30;;
13171;SDS011;6651;53.200;10.432;2023-07-13T08:11:13;11.75;;;3.50;;
13171;SDS011;6651;53.200;10.432;2023-07-13T08:13:39;8.75;;;3.20;;
13171;SDS011;6651;53.200;10.432;2023-07-13T08:16:06;11.80;;;3.40;;
13171;SDS011;6651;53.200;10.432;2023-07-13T08:18:32;7.30;;;2.90;;
13171;SDS011;6651;53.200;10.432;2023-07-13T08:20:58;10.60;;;3.20;;
13171;SDS011;6651;53.200;10.432;2023-07-13T08:23:25;9.50;;;3.00;;
13171;SDS011;6651;53.200;10.432;2023-07-13T08:25:51;6.90;;;2.42;;
13171;SDS011;6651;53.200;10.432;2023-07-13T08:28:17;6.55;;;2.47;;
13171;SDS011;6651;53.200;10.432;2023-07-13T08:30:43;7.28;;;2.75;;
13171;SDS011;6651;53.200;10.432;2023-07-13T08:33:14;11.38;;;2.65;;
13171;SDS011;6651;53.200;10.432;2023-07-13T08:35:40;9.32;;;2.83;;
13171;SDS011;6651;53.200;10.432;2023-07-13T08:38:06;9.75;;;3.05;;
13171;SDS011;6651;53.200;10.432;2023-07-13T08:40:32;8.48;;;2.80;;
13171;SDS011;6651;53.200;10.432;2023-07-13T08:42:59;6.68;;;2.85;;
13171;SDS011;6651;53.200;10.432;2023-07-13T08:48:05;8.75;;;2.50;;
13171;SDS011;6651;53.200;10.432;2023-07-13T08:50:35;7.63;;;2.90;;
13171;SDS011;6651;53.200;10.432;2023-07-13T08:53:03;8.77;;;2.80;;
13171;SDS011;6651;53.200;10.432;2023-07-13T08:55:31;6.45;;;2.40;;
13171;SDS011;6651;53.200;10.432;2023-07-13T08:58:14;8.88;;;2.80;;
13171;SDS011;6651;53.200;10.432;2023-07-13T09:00:55;6.47;;;2.63;;
13171;SDS011;6651;53.200;10.432;2023-07-13T09:03:23;7.03;;;2.45;;
13171;SDS011;6651;53.200;10.432;2023-07-13T09:05:54;8.00;;;2.40;;
13171;SDS011;6651;53.200;10.432;2023-07-13T09:08:41;5.65;;;2.25;;
13171;SDS011;6651;53.200;10.432;2023-07-13T09:11:14;7.95;;;2.53;;
13171;SDS011;6651;53.200;10.432;2023-07-13T09:13:51;6.43;;;2.20;;
13171;SDS011;6651;53.200;10.432;2023-07-13T09:16:20;6.38;;;2.60;;
13171;SDS011;6651;53.200;10.432;2023-07-13T09:18:48;6.07;;;2.50;;
13171;SDS011;6651;53.200;10.432;2023-07-13T09:21:16;5.53;;;2.20;;
13171;SDS011;6651;53.200;10.432;2023-07-13T09:23:43;6.47;;;2.50;;
13171;SDS011;6651;53.200;10.432;2023-07-13T09:26:14;7.28;;;2.30;;
13171;SDS011;6651;53.200;10.432;2023-07-13T09:28:42;6.90;;;2.22;;
13171;SDS011;6651;53.200;10.432;2023-07-13T09:31:11;5.53;;;2.10;;
13171;SDS011;6651;53.200;10.432;2023-07-13T09:33:39;8.68;;;2.60;;
13171;SDS011;6651;53.200;10.432;2023-07-13T09:36:16;5.53;;;2.05;;
13171;SDS011;6651;53.200;10.432;2023-07-13T09:38:43;5.53;;;2.05;;
13171;SDS011;6651;53.200;10.432;2023-07-13T09:44:06;8.13;;;2.60;;
13171;SDS011;6651;53.200;10.432;2023-07-13T09:46:36;5.65;;;1.98;;
13171;SDS011;6651;53.200;10.432;2023-07-13T09:49:02;7.93;;;2.55;;
13171;SDS011;6651;53.200;10.432;2023-07-13T09:51:28;5.43;;;2.53;;
13171;SDS011;6651;53.200;10.432;2023-07-13T09:53:54;5.40;;;2.40;;
13171;SDS011;6651;53.200;10.432;2023-07-13T09:58:46;7.75;;;2.50;;
13171;SDS011;6651;53.200;10.432;2023-07-13T10:01:13;5.80;;;2.13;;
13171;SDS011;6651;53.200;10.432;2023-07-13T10:03:39;6.93;;;2.22;;
13171;SDS011;6651;53.200;10.432;2023-07-13T10:06:21;6.80;;;2.35;;
13171;SDS011;6651;53.200;10.432;2023-07-13T10:08:48;7.63;;;2.55;;
13171;SDS011;6651;53.200;10.432;2023-07-13T10:13:48;5.32;;;2.08;;
13171;SDS011;6651;53.200;10.432;2023-07-13T10:16:16;4.78;;;2.22;;
13171;SDS011;6651;53.200;10.432;2023-07-13T10:18:45;7.22;;;2.20;;
13171;SDS011;6651;53.200;10.432;2023-07-13T10:21:13;5.10;;;2.15;;
13171;SDS011;6651;53.200;10.432;2023-07-13T10:23:39;8.10;;;2.40;;
13171;SDS011;6651;53.200;10.432;2023-07-13T10:26:09;7.07;;;2.40;;
13171;SDS011;6651;53.200;10.432;2023-07-13T10:28:38;6.28;;;2.50;;
13171;SDS011;6651;53.200;10.432;2023-07-13T10:31:05;5.82;;;2.25;;
13171;SDS011;6651;53.200;10.432;2023-07-13T10:33:35;8.32;;;2.83;;
13171;SDS011;6651;53.200;10.432;2023-07-13T10:38:39;6.00;;;2.28;;
13171;SDS011;6651;53.200;10.432;2023-07-13T10:41:08;5.03;;;2.10;;
13171;SDS011;6651;53.200;10.432;2023-07-13T10:43:40;5.90;;;2.20;;
13171;SDS011;6651;53.200;10.432;2023-07-13T10:46:08;4.85;;;2.10;;
13171;SDS011;6651;53.200;10.432;2023-07-13T10:48:35;5.38;;;1.98;;
13171;SDS011;6651;53.200;10.432;2023-07-13T10:51:03;6.68;;;2.00;;
13171;SDS011;6651;53.200;10.432;2023-07-13T10:53:34;5.80;;;2.20;;
13171;SDS011;6651;53.200;10.432;2023-07-13T10:56:05;6.35;;;2.30;;
13171;SDS011;6651;53.200;10.432;2023-07-13T10:58:37;3.15;;;2.03;;
13171;SDS011;6651;53.200;10.432;2023-07-13T11:03:37;6.85;;;2.40;;
13171;SDS011;6651;53.200;10.432;2023-07-13T11:08:35;5.68;;;2.17;;
13171;SDS011;6651;53.200;10.432;2023-07-13T11:11:32;5.97;;;2.28;;
13171;SDS011;6651;53.200;10.432;2023-07-13T11:18:46;5.85;;;2.50;;
13171;SDS011;6651;53.200;10.432;2023-07-13T11:21:17;6.03;;;1.90;;
13171;SDS011;6651;53.200;10.432;2023-07-13T11:23:44;5.53;;;2.17;;
13171;SDS011;6651;53.200;10.432;2023-07-13T11:28:57;4.50;;;2.03;;
13171;SDS011;6651;53.200;10.432;2023-07-13T11:31:23;3.80;;;2.05;;
13171;SDS011;6651;53.200;10.432;2023-07-13T11:33:50;4.20;;;2.08;;
13171;SDS011;6651;53.200;10.432;2023-07-13T11:36:18;5.10;;;2.20;;
13171;SDS011;6651;53.200;10.432;2023-07-13T11:38:51;3.28;;;1.88;;
13171;SDS011;6651;53.200;10.432;2023-07-13T11:41:31;5.47;;;2.35;;
13171;SDS011;6651;53.200;10.432;2023-07-13T11:47:00;5.95;;;2.20;;
13171;SDS011;6651;53.200;10.432;2023-07-13T11:49:29;4.05;;;2.22;;
13171;SDS011;6651;53.200;10.432;2023-07-13T11:51:56;5.25;;;2.28;;
13171;SDS011;6651;53.200;10.432;2023-07-13T11:54:27;4.53;;;2.03;;
13171;SDS011;6651;53.200;10.432;2023-07-13T11:56:55;5.80;;;2.33;;
13171;SDS011;6651;53.200;10.432;2023-07-13T11:59:23;3.78;;;2.20;;
13171;SDS011;6651;53.200;10.432;2023-07-13T12:01:51;4.47;;;2.20;;
13171;SDS011;6651;53.200;10.432;2023-07-13T12:04:31;4.03;;;2.10;;
13171;SDS011;6651;53.200;10.432;2023-07-13T12:07:03;4.40;;;2.28;;
13171;SDS011;6651;53.200;10.432;2023-07-13T12:09:29;4.35;;;2.00;;
13171;SDS011;6651;53.200;10.432;2023-07-13T12:11:57;4.70;;;2.10;;
13171;SDS011;6651;53.200;10.432;2023-07-13T12:14:26;4.65;;;2.20;;
13171;SDS011;6651;53.200;10.432;2023-07-13T12:16:52;3.38;;;2.00;;
13171;SDS011;6651;53.200;10.432;2023-07-13T12:19:22;4.95;;;2.10;;
13171;SDS011;6651;53.200;10.432;2023-07-13T12:21:48;7.05;;;2.28;;
13171;SDS011;6651;53.200;10.432;2023-07-13T12:24:16;4.97;;;1.90;;
13171;SDS011;6651;53.200;10.432;2023-07-13T12:26:42;4.45;;;2.20;;
13171;SDS011;6651;53.200;10.432;2023-07-13T12:29:11;3.65;;;1.90;;
13171;SDS011;6651;53.200;10.432;2023-07-13T12:31:41;3.42;;;1.80;;
13171;SDS011;6651;53.200;10.432;2023-07-13T12:36:37;5.20;;;2.10;;
13171;SDS011;6651;53.200;10.432;2023-07-13T12:39:06;2.78;;;2.00;;
13171;SDS011;6651;53.200;10.432;2023-07-13T12:41:37;3.88;;;2.10;;
13171;SDS011;6651;53.200;10.432;2023-07-13T12:44:04;5.53;;;1.95;;
13171;SDS011;6651;53.200;10.432;2023-07-13T12:46:30;5.07;;;2.22;;
13171;SDS011;6651;53.200;10.432;2023-07-13T12:48:57;4.22;;;2.10;;
13171;SDS011;6651;53.200;10.432;2023-07-13T12:51:25;3.90;;;2.10;;
13171;SDS011;6651;53.200;10.432;2023-07-13T12:53:56;4.63;;;2.15;;
13171;SDS011;6651;53.200;10.432;2023-07-13T12:56:23;4.88;;;2.20;;
13171;SDS011;6651;53.200;10.432;2023-07-13T12:58:50;4.85;;;2.40;;
13171;SDS011;6651;53.200;10.432;2023-07-13T13:01:20;4.03;;;2.00;;
13171;SDS011;6651;53.200;10.432;2023-07-13T13:03:48;6.75;;;2.60;;
13171;SDS011;6651;53.200;10.432;2023-07-13T13:08:46;3.97;;;2.00;;
13171;SDS011;6651;53.200;10.432;2023-07-13T13:11:16;4.03;;;2.10;;
13171;SDS011;6651;53.200;10.432;2023-07-13T13:13:42;2.33;;;1.60;;
13171;SDS011;6651;53.200;10.432;2023-07-13T13:16:12;4.25;;;1.85;;
13171;SDS011;6651;53.200;10.432;2023-07-13T13:18:40;3.55;;;1.90;;
13171;SDS011;6651;53.200;10.432;2023-07-13T13:21:06;4.22;;;2.30;;
13171;SDS011;6651;53.200;10.432;2023-07-13T13:23:32;5.13;;;2.55;;
13171;SDS011;6651;53.200;10.432;2023-07-13T13:25:58;4.40;;;2.30;;
13171;SDS011;6651;53.200;10.432;2023-07-13T13:28:25;5.13;;;2.60;;
13171;SDS011;6651;53.200;10.432;2023-07-13T13:30:51;6.32;;;2.80;;
13171;SDS011;6651;53.200;10.432;2023-07-13T13:33:18;3.03;;;2.30;;
13171;SDS011;6651;53.200;10.432;2023-07-13T13:35:45;3.92;;;2.50;;
13171;SDS011;6651;53.200;10.432;2023-07-13T13:38:15;3.97;;;2.40;;
13171;SDS011;6651;53.200;10.432;2023-07-13T13:40:42;4.55;;;2.60;;
13171;SDS011;6651;53.200;10.432;2023-07-13T13:43:15;4.95;;;2.80;;
13171;SDS011;6651;53.200;10.432;2023-07-13T13:45:42;2.78;;;2.35;;
13171;SDS011;6651;53.200;10.432;2023-07-13T13:48:18;6.47;;;2.78;;
13171;SDS011;6651;53.200;10.432;2023-07-13T13:50:45;5.45;;;2.63;;
13171;SDS011;6651;53.200;10.432;2023-07-13T13:53:12;5.15;;;2.78;;
13171;SDS011;6651;53.200;10.432;2023-07-13T13:55:41;4.35;;;2.60;;
13171;SDS011;6651;53.200;10.432;2023-07-13T13:58:10;5.00;;;2.75;;
13171;SDS011;6651;53.200;10.432;2023-07-13T14:00:39;3.30;;;2.50;;
13171;SDS011;6651;53.200;10.432;2023-07-13T14:03:05;7.18;;;2.60;;
13171;SDS011;6651;53.200;10.432;2023-07-13T14:05:34;6.47;;;2.80;;
13171;SDS011;6651;53.200;10.432;2023-07-13T14:08:00;4.00;;;2.80;;
13171;SDS011;6651;53.200;10.432;2023-07-13T14:10:26;6.28;;;2.85;;
13171;SDS011;6651;53.200;10.432;2023-07-13T14:12:53;4.50;;;2.60;;
13171;SDS011;6651;53.200;10.432;2023-07-13T14:17:47;3.90;;;2.72;;
13171;SDS011;6651;53.200;10.432;2023-07-13T14:20:16;4.55;;;2.50;;
13171;SDS011;6651;53.200;10.432;2023-07-13T14:22:42;4.47;;;2.70;;
13171;SDS011;6651;53.200;10.432;2023-07-13T14:25:13;4.75;;;2.40;;
13171;SDS011;6651;53.200;10.432;2023-07-13T14:27:40;4.38;;;2.28;;
13171;SDS011;6651;53.200;10.432;2023-07-13T14:32:47;2.55;;;2.35;;
13171;SDS011;6651;53.200;10.432;2023-07-13T14:35:14;5.55;;;2.67;;
13171;SDS011;6651;53.200;10.432;2023-07-13T14:37:41;3.42;;;2.63;;
13171;SDS011;6651;53.200;10.432;2023-07-13T14:40:14;4.38;;;2.35;;
13171;SDS011;6651;53.200;10.432;2023-07-13T14:42:40;3.95;;;2.40;;
13171;SDS011;6651;53.200;10.432;2023-07-13T14:45:17;4.85;;;2.90;;
13171;SDS011;6651;53.200;10.432;2023-07-13T14:47:44;5.50;;;2.97;;
13171;SDS011;6651;53.200;10.432;2023-07-13T14:50:14;3.40;;;2.58;;
13171;SDS011;6651;53.200;10.432;2023-07-13T14:52:41;3.45;;;2.50;;
13171;SDS011;6651;53.200;10.432;2023-07-13T14:55:12;4.35;;;2.92;;
13171;SDS011;6651;53.200;10.432;2023-07-13T14:57:38;5.15;;;2.42;;
13171;SDS011;6651;53.200;10.432;2023-07-13T15:00:07;4.00;;;2.60;;
13171;SDS011;6651;53.200;10.432;2023-07-13T15:02:38;4.40;;;2.20;;
13171;SDS011;6651;53.200;10.432;2023-07-13T15:05:28;3.45;;;2.20;;
13171;SDS011;6651;53.200;10.432;2023-07-13T15:07:52;2.58;;;2.00;;
13171;SDS011;6651;53.200;10.432;2023-07-13T15:10:19;2.58;;;2.10;;
13171;SDS011;6651;53.200;10.432;2023-07-13T15:12:45;4.90;;;2.35;;
13171;SDS011;6651;53.200;10.432;2023-07-13T15:15:11;3.55;;;2.22;;
13171;SDS011;6651;53.200;10.432;2023-07-13T15:17:42;3.30;;;2.10;;
13171;SDS011;6651;53.200;10.432;2023-07-13T15:22:41;2.58;;;1.98;;
13171;SDS011;6651;53.200;10.432;2023-07-13T15:25:15;2.80;;;1.92;;
13171;SDS011;6651;53.200;10.432;2023-07-13T15:27:41;2.30;;;1.90;;